createdAt,value
2022-07-30T00:02:12.069Z,15.47
2022-07-30T00:04:40.119Z,9.30
2022-07-30T00:07:08.945Z,10.00
2022-07-30T00:09:36.956Z,10.93
2022-07-30T00:12:05.462Z,11.40
2022-07-30T00:14:34.873Z,10.63
2022-07-30T00:17:03.564Z,9.77
2022-07-30T00:19:33.335Z,9.30
2022-07-30T00:22:01.304Z,8.23
2022-07-30T00:24:29.188Z,9.60
2022-07-30T00:26:57.077Z,11.53
2022-07-30T00:29:25.539Z,8.10
2022-07-30T00:31:53.504Z,9.97
2022-07-30T00:34:21.429Z,8.13
2022-07-30T00:36:50.687Z,8.17
2022-07-30T00:39:18.620Z,12.17
2022-07-30T00:41:57.743Z,8.67
2022-07-30T00:44:25.754Z,7.90
2022-07-30T00:46:54.140Z,15.00
2022-07-30T00:49:22.243Z,9.53
2022-07-30T00:51:52.003Z,8.40
2022-07-30T00:54:21.156Z,7.83
2022-07-30T00:56:49.162Z,9.43
2022-07-30T00:59:17.623Z,7.17
2022-07-30T01:01:45.690Z,9.47
2022-07-30T01:04:13.624Z,8.43
2022-07-30T01:06:41.737Z,7.93
2022-07-30T01:09:11.008Z,7.53
2022-07-30T01:11:40.787Z,9.13
2022-07-30T01:14:09.817Z,7.93
2022-07-30T01:16:41.316Z,9.13
2022-07-30T01:19:32.409Z,11.60
2022-07-30T01:22:10.353Z,7.83
2022-07-30T01:24:42.515Z,6.30
2022-07-30T01:27:18.065Z,6.97
2022-07-30T01:29:49.106Z,6.40
2022-07-30T01:32:20.142Z,7.93
2022-07-30T01:34:48.697Z,13.00
2022-07-30T01:37:17.792Z,7.17
2022-07-30T01:39:49.581Z,6.40
2022-07-30T01:42:20.742Z,6.97
2022-07-30T01:44:50.037Z,7.80
2022-07-30T01:47:19.513Z,8.67
2022-07-30T01:49:49.505Z,8.33
2022-07-30T01:52:19.129Z,7.47
2022-07-30T01:54:50.991Z,7.80
2022-07-30T01:57:22.023Z,16.37
2022-07-30T01:59:53.102Z,9.40
2022-07-30T02:02:21.274Z,10.47
2022-07-30T02:04:49.309Z,11.10
2022-07-30T02:07:24.180Z,13.20
2022-07-30T02:09:56.638Z,14.43
2022-07-30T02:12:30.004Z,11.07
2022-07-30T02:15:04.247Z,9.53
2022-07-30T02:17:39.885Z,11.77
2022-07-30T02:20:15.441Z,17.00
2022-07-30T02:22:47.133Z,18.77
2022-07-30T02:25:19.657Z,21.40
2022-07-30T02:27:53.592Z,22.53
2022-07-30T02:30:24.295Z,24.27
2022-07-30T02:32:53.337Z,19.87
2022-07-30T02:35:23.225Z,18.00
2022-07-30T02:37:53.851Z,21.40
2022-07-30T02:40:24.021Z,18.07
2022-07-30T02:42:54.697Z,19.87
2022-07-30T02:45:24.803Z,17.17
2022-07-30T02:47:57.128Z,19.10
2022-07-30T02:50:26.873Z,17.30
2022-07-30T02:52:55.510Z,16.53
2022-07-30T02:55:25.333Z,17.93
2022-07-30T02:57:56.248Z,17.40
2022-07-30T03:00:26.017Z,21.67
2022-07-30T03:02:56.869Z,16.73
2022-07-30T03:05:25.751Z,15.90
2022-07-30T03:07:56.027Z,14.60
2022-07-30T03:10:25.567Z,14.40
2022-07-30T03:12:55.598Z,16.80
2022-07-30T03:15:23.961Z,20.77
2022-07-30T03:17:55.522Z,23.37
2022-07-30T03:20:29.157Z,22.83
2022-07-30T03:22:59.628Z,17.10
2022-07-30T03:25:29.336Z,30.83
2022-07-30T03:28:00.392Z,22.87
2022-07-30T03:30:29.544Z,23.07
2022-07-30T03:32:58.248Z,17.03
2022-07-30T03:35:26.772Z,21.57
2022-07-30T03:38:00.041Z,17.87
2022-07-30T03:40:29.632Z,17.53
2022-07-30T03:42:59.425Z,28.00
2022-07-30T03:45:27.882Z,20.23
2022-07-30T03:47:56.866Z,16.70
2022-07-30T03:50:25.055Z,15.60
2022-07-30T03:52:53.277Z,19.83
2022-07-30T03:55:21.953Z,16.90
2022-07-30T03:57:50.038Z,17.67
2022-07-30T04:00:19.565Z,20.70
2022-07-30T04:02:48.275Z,17.10
2022-07-30T04:05:17.764Z,16.60
2022-07-30T04:07:45.769Z,17.80
2022-07-30T04:10:15.531Z,17.13
2022-07-30T04:12:43.609Z,19.00
2022-07-30T04:16:37.261Z,14.83
2022-07-30T04:18:05.439Z,15.30
2022-07-30T04:20:40.436Z,17.93
2022-07-30T04:23:09.223Z,14.73
2022-07-30T04:25:37.537Z,15.37
2022-07-30T04:28:06.897Z,14.53
2022-07-30T04:30:35.337Z,15.77
2022-07-30T04:33:05.445Z,12.40
2022-07-30T04:35:51.020Z,14.83
2022-07-30T04:38:20.931Z,14.33
2022-07-30T04:40:49.512Z,12.70
2022-07-30T04:43:17.449Z,15.03
2022-07-30T04:45:45.420Z,13.00
2022-07-30T04:48:14.711Z,14.60
2022-07-30T04:50:46.473Z,16.27
2022-07-30T04:53:15.561Z,14.20
2022-07-30T04:55:45.830Z,16.13
2022-07-30T04:58:16.295Z,15.77
2022-07-30T05:00:45.431Z,15.53
2022-07-30T05:03:17.258Z,16.50
2022-07-30T05:05:46.738Z,15.83
2022-07-30T05:08:14.941Z,16.37
2022-07-30T05:10:44.671Z,17.50
2022-07-30T05:13:14.107Z,15.83
2022-07-30T05:15:44.712Z,22.07
2022-07-30T05:18:14.398Z,19.70
2022-07-30T05:20:42.473Z,16.30
2022-07-30T05:23:10.455Z,18.37
2022-07-30T05:25:38.357Z,13.77
2022-07-30T05:28:06.343Z,21.10
2022-07-30T05:30:34.377Z,17.50
2022-07-30T05:33:03.725Z,17.60
2022-07-30T05:35:42.716Z,18.30
2022-07-30T05:38:10.639Z,19.37
2022-07-30T05:40:38.779Z,20.50
2022-07-30T05:43:06.772Z,21.00
2022-07-30T05:45:34.780Z,19.57
2022-07-30T05:48:02.740Z,17.43
2022-07-30T05:50:30.815Z,18.87
2022-07-30T05:53:00.122Z,23.10
2022-07-30T05:55:28.086Z,26.60
2022-07-30T05:57:56.012Z,22.20
2022-07-30T06:00:24.034Z,22.30
2022-07-30T06:02:52.841Z,26.50
2022-07-30T06:05:20.971Z,21.70
2022-07-30T06:07:48.879Z,21.07
2022-07-30T06:10:18.209Z,19.60
2022-07-30T06:12:46.113Z,18.43
2022-07-30T06:15:14.419Z,19.10
2022-07-30T06:17:43.879Z,24.00
2022-07-30T06:20:21.393Z,16.10
2022-07-30T06:22:49.400Z,15.10
2022-07-30T06:25:19.402Z,19.20
2022-07-30T06:27:47.352Z,12.70
2022-07-30T06:30:15.661Z,13.17
2022-07-30T06:32:45.640Z,13.20
2022-07-30T06:35:16.873Z,11.60
2022-07-30T06:38:06.012Z,11.83
2022-07-30T06:40:34.452Z,10.93
2022-07-30T06:43:04.154Z,10.20
2022-07-30T06:45:32.205Z,13.53
2022-07-30T06:48:00.696Z,13.98
2022-07-30T06:50:29.361Z,8.93
2022-07-30T06:52:57.299Z,9.75
2022-07-30T06:55:25.624Z,9.63
2022-07-30T06:57:54.972Z,9.00
2022-07-30T07:00:22.908Z,6.90
2022-07-30T07:02:50.903Z,8.00
2022-07-30T07:05:20.539Z,7.78
2022-07-30T07:07:58.357Z,6.95
2022-07-30T07:10:27.816Z,6.18
2022-07-30T07:12:57.387Z,9.50
2022-07-30T07:15:37.118Z,6.45
2022-07-30T07:18:06.472Z,14.70
2022-07-30T07:20:35.367Z,8.60
2022-07-30T07:23:09.390Z,9.55
2022-07-30T07:25:42.434Z,6.88
2022-07-30T07:28:33.360Z,8.45
2022-07-30T07:31:01.862Z,8.63
2022-07-30T07:33:30.271Z,8.30
2022-07-30T07:35:58.260Z,9.77
2022-07-30T07:38:26.283Z,8.40
2022-07-30T07:40:55.057Z,13.20
2022-07-30T07:43:25.547Z,6.50
2022-07-30T07:45:53.496Z,11.70
2022-07-30T07:48:21.538Z,8.95
2022-07-30T07:50:50.067Z,8.63
2022-07-30T07:53:18.274Z,6.55
2022-07-30T07:55:46.242Z,8.30
2022-07-30T07:58:14.697Z,8.48
2022-07-30T08:00:50.271Z,6.88
2022-07-30T08:03:18.202Z,5.75
2022-07-30T08:06:01.107Z,4.82
2022-07-30T08:08:36.491Z,5.18
2022-07-30T08:11:07.501Z,6.68
2022-07-30T08:13:52.145Z,4.78
2022-07-30T08:16:22.625Z,7.15
2022-07-30T08:18:50.948Z,5.85
2022-07-30T08:21:18.968Z,5.57
2022-07-30T08:23:47.065Z,5.10
2022-07-30T08:26:15.217Z,6.03
2022-07-30T08:28:47.128Z,5.68
2022-07-30T08:31:15.174Z,4.55
2022-07-30T08:33:44.528Z,5.60
2022-07-30T08:36:12.557Z,4.80
2022-07-30T08:38:40.758Z,5.50
2022-07-30T08:41:11.955Z,6.85
2022-07-30T08:43:43.352Z,6.85
2022-07-30T08:46:13.828Z,6.32
2022-07-30T08:48:45.304Z,6.10
2022-07-30T08:51:13.485Z,8.80
2022-07-30T08:53:43.023Z,8.30
2022-07-30T08:56:11.207Z,10.35
2022-07-30T08:58:42.603Z,6.68
2022-07-30T09:01:10.726Z,7.55
2022-07-30T09:03:44.054Z,6.70
2022-07-30T09:06:13.926Z,5.22
2022-07-30T09:08:41.917Z,8.35
2022-07-30T09:11:10.399Z,4.97
2022-07-30T09:13:41.727Z,5.03
2022-07-30T09:16:20.413Z,5.90
2022-07-30T09:18:48.720Z,5.13
2022-07-30T09:21:22.317Z,5.78
2022-07-30T09:24:05.245Z,5.47
2022-07-30T09:26:52.711Z,4.47
2022-07-30T09:29:23.023Z,4.82
2022-07-30T09:31:58.294Z,5.78
2022-07-30T09:34:40.209Z,4.90
2022-07-30T09:37:20.378Z,5.75
2022-07-30T09:39:58.878Z,4.03
2022-07-30T09:42:29.685Z,3.85
2022-07-30T09:45:12.150Z,8.20
2022-07-30T09:47:41.452Z,11.15
2022-07-30T09:50:17.968Z,4.50
2022-07-30T09:53:08.969Z,3.58
2022-07-30T09:55:41.064Z,6.10
2022-07-30T09:58:10.306Z,5.13
2022-07-30T10:00:44.658Z,4.35
2022-07-30T10:03:21.786Z,3.03
2022-07-30T10:06:03.756Z,2.63
2022-07-30T10:08:45.869Z,5.35
2022-07-30T10:11:17.341Z,4.43
2022-07-30T10:13:53.546Z,4.85
2022-07-30T10:16:21.745Z,3.83
2022-07-30T10:18:53.095Z,3.10
2022-07-30T10:21:24.382Z,2.78
2022-07-30T10:23:55.497Z,4.18
2022-07-30T10:26:26.573Z,5.53
2022-07-30T10:28:54.849Z,2.42
2022-07-30T10:31:46.702Z,2.92
2022-07-30T10:34:13.266Z,4.68
2022-07-30T10:36:50.418Z,4.05
2022-07-30T10:39:26.302Z,3.55
2022-07-30T10:42:09.950Z,4.18
2022-07-30T10:45:17.676Z,3.90
2022-07-30T10:47:48.744Z,4.03
2022-07-30T10:50:22.211Z,3.22
2022-07-30T10:52:53.315Z,3.35
2022-07-30T10:55:36.679Z,4.60
2022-07-30T10:58:08.069Z,6.75
2022-07-30T11:00:38.610Z,2.83
2022-07-30T11:03:16.163Z,3.22
2022-07-30T11:05:45.982Z,4.97
2022-07-30T11:08:35.840Z,3.83
2022-07-30T11:11:19.865Z,3.08
2022-07-30T11:13:57.373Z,2.97
2022-07-30T11:16:46.285Z,5.95
2022-07-30T11:19:53.391Z,3.15
2022-07-30T11:22:27.343Z,3.67
2022-07-30T11:24:56.711Z,5.30
2022-07-30T11:27:45.481Z,3.78
2022-07-30T11:30:35.236Z,2.83
2022-07-30T11:33:32.198Z,3.72
2022-07-30T11:36:12.441Z,3.33
2022-07-30T11:39:01.142Z,3.13
2022-07-30T11:41:36.353Z,3.20
2022-07-30T11:44:28.876Z,3.38
2022-07-30T11:47:00.058Z,2.75
2022-07-30T11:49:36.820Z,3.22
2022-07-30T11:52:05.602Z,3.50
2022-07-30T11:54:33.866Z,4.95
2022-07-30T11:57:04.793Z,2.92
2022-07-30T11:59:53.563Z,4.22
2022-07-30T12:02:28.842Z,4.68
2022-07-30T12:04:57.453Z,6.38
2022-07-30T12:07:27.192Z,4.47
2022-07-30T12:10:13.037Z,5.30
2022-07-30T12:12:44.870Z,5.65
2022-07-30T12:15:34.289Z,6.25
2022-07-30T12:18:25.217Z,5.10
2022-07-30T12:20:55.979Z,5.28
2022-07-30T12:23:26.422Z,5.32
2022-07-30T12:25:56.250Z,12.18
2022-07-30T12:28:26.571Z,7.40
2022-07-30T12:31:01.589Z,12.75
2022-07-30T12:33:29.790Z,10.40
2022-07-30T12:35:59.257Z,6.50
2022-07-30T12:38:28.873Z,6.75
2022-07-30T12:40:59.484Z,7.38
2022-07-30T12:43:47.551Z,6.18
2022-07-30T12:46:19.874Z,10.88
2022-07-30T12:48:55.667Z,8.98
2022-07-30T12:51:25.786Z,5.43
2022-07-30T12:53:55.687Z,10.40
2022-07-30T12:56:25.843Z,8.27
2022-07-30T12:58:54.920Z,6.82
2022-07-30T13:01:42.556Z,4.70
2022-07-30T13:04:11.735Z,8.00
2022-07-30T13:06:42.156Z,6.95
2022-07-30T13:09:20.159Z,6.95
2022-07-30T13:11:50.006Z,6.20
2022-07-30T13:14:18.045Z,6.63
2022-07-30T13:16:47.646Z,5.20
2022-07-30T13:19:15.741Z,7.38
2022-07-30T13:21:49.834Z,5.10
2022-07-30T13:24:18.460Z,8.65
2022-07-30T13:26:46.865Z,5.57
2022-07-30T13:29:15.054Z,6.80
2022-07-30T13:31:43.645Z,5.65
2022-07-30T13:34:13.671Z,7.55
2022-07-30T13:36:41.956Z,8.88
2022-07-30T13:39:11.999Z,9.52
2022-07-30T13:41:42.845Z,3.30
2022-07-30T13:44:10.899Z,4.07
2022-07-30T13:46:41.191Z,4.05
2022-07-30T13:49:11.967Z,7.95
2022-07-30T13:51:41.578Z,3.97
2022-07-30T13:54:12.558Z,3.13
2022-07-30T13:56:42.341Z,3.95
2022-07-30T13:59:10.772Z,3.03
2022-07-30T14:01:43.623Z,3.45
2022-07-30T14:04:14.250Z,12.48
2022-07-30T14:06:44.215Z,4.13
2022-07-30T14:09:15.372Z,4.35
2022-07-30T14:11:45.593Z,2.63
2022-07-30T14:14:15.441Z,3.92
2022-07-30T14:16:45.611Z,2.88
2022-07-30T14:19:24.126Z,6.32
2022-07-30T14:21:57.830Z,3.05
2022-07-30T14:24:28.696Z,3.15
2022-07-30T14:26:58.291Z,4.05
2022-07-30T14:29:27.125Z,6.20
2022-07-30T14:31:55.259Z,4.85
2022-07-30T14:34:23.395Z,4.65
2022-07-30T14:36:52.773Z,6.97
2022-07-30T14:39:21.165Z,4.65
2022-07-30T14:41:52.427Z,4.43
2022-07-30T14:44:23.927Z,5.75
2022-07-30T14:46:52.986Z,3.97
2022-07-30T14:49:21.589Z,6.22
2022-07-30T14:51:50.927Z,3.97
2022-07-30T14:54:20.463Z,3.70
2022-07-30T14:56:48.735Z,3.88
2022-07-30T14:59:16.942Z,6.85
2022-07-30T15:01:47.562Z,3.80
2022-07-30T15:04:16.126Z,4.35
2022-07-30T15:06:44.215Z,7.55
2022-07-30T15:09:12.279Z,3.95
2022-07-30T15:12:07.989Z,5.93
2022-07-30T15:14:30.044Z,5.10
2022-07-30T15:17:03.881Z,4.63
2022-07-30T15:19:32.625Z,6.68
2022-07-30T15:22:02.741Z,4.43
2022-07-30T15:24:32.363Z,3.53
2022-07-30T15:27:01.801Z,4.40
2022-07-30T15:29:30.847Z,4.78
2022-07-30T15:32:00.985Z,3.88
2022-07-30T15:34:34.037Z,3.95
2022-07-30T15:37:02.687Z,3.17
2022-07-30T15:39:32.930Z,4.57
2022-07-30T15:42:03.511Z,3.70
2022-07-30T15:44:32.240Z,4.50
2022-07-30T15:47:00.943Z,9.15
2022-07-30T15:49:29.823Z,4.25
2022-07-30T15:52:00.277Z,3.88
2022-07-30T15:54:28.854Z,4.55
2022-07-30T15:57:01.112Z,4.25
2022-07-30T15:59:31.491Z,3.05
2022-07-30T16:01:59.724Z,7.75
2022-07-30T16:04:31.839Z,6.53
2022-07-30T16:07:00.918Z,5.05
2022-07-30T16:09:28.878Z,5.90
2022-07-30T16:11:57.485Z,4.72
2022-07-30T16:14:26.236Z,4.55
2022-07-30T16:16:55.583Z,5.00
2022-07-30T16:19:23.549Z,4.18
2022-07-30T16:21:51.666Z,5.40
2022-07-30T16:24:19.715Z,4.63
2022-07-30T16:26:48.069Z,3.10
2022-07-30T16:29:16.028Z,3.90
2022-07-30T16:31:43.998Z,9.10
2022-07-30T16:34:13.375Z,3.60
2022-07-30T16:36:41.571Z,2.93
2022-07-30T16:39:09.527Z,3.90
2022-07-30T16:41:37.824Z,6.23
2022-07-30T16:44:06.093Z,3.60
2022-07-30T16:46:34.447Z,3.37
2022-07-30T16:49:02.520Z,3.70
2022-07-30T16:51:32.271Z,5.63
2022-07-30T16:54:00.367Z,3.63
2022-07-30T16:56:28.994Z,2.63
2022-07-30T16:58:57.047Z,4.17
2022-07-30T17:01:25.093Z,6.00
2022-07-30T17:03:53.160Z,3.67
2022-07-30T17:06:21.168Z,7.43
2022-07-30T17:08:50.509Z,5.20
2022-07-30T17:11:46.412Z,4.23
2022-07-30T17:14:07.450Z,3.50
2022-07-30T17:16:35.412Z,4.13
2022-07-30T17:19:09.330Z,3.23
2022-07-30T17:21:38.133Z,3.10
2022-07-30T17:24:11.443Z,8.80
2022-07-30T17:26:41.754Z,4.93
2022-07-30T17:29:13.882Z,3.87
2022-07-30T17:31:44.096Z,7.03
2022-07-30T17:34:14.016Z,5.23
2022-07-30T17:36:51.444Z,4.77
2022-07-30T17:40:28.175Z,4.10
2022-07-30T17:42:12.514Z,4.47
2022-07-30T17:44:42.518Z,3.83
2022-07-30T17:47:14.660Z,4.87
2022-07-30T17:49:44.589Z,4.40
2022-07-30T17:52:12.782Z,3.30
2022-07-30T17:54:42.105Z,2.57
2022-07-30T17:57:11.062Z,3.80
2022-07-30T17:59:39.035Z,4.33
2022-07-30T18:02:07.240Z,2.93
2022-07-30T18:04:35.472Z,5.43
2022-07-30T18:07:03.922Z,8.90
2022-07-30T18:09:38.637Z,4.23
2022-07-30T18:12:09.909Z,4.90
2022-07-30T18:14:38.666Z,3.70
2022-07-30T18:17:09.055Z,3.73
2022-07-30T18:19:40.868Z,7.30
2022-07-30T18:22:09.207Z,4.97
2022-07-30T18:24:40.337Z,4.37
2022-07-30T18:27:12.747Z,8.53
2022-07-30T18:29:40.706Z,4.07
2022-07-30T18:32:09.174Z,4.80
2022-07-30T18:34:37.361Z,3.80
2022-07-30T18:37:05.401Z,4.60
2022-07-30T18:39:33.436Z,5.87
2022-07-30T18:42:02.286Z,3.93
2022-07-30T18:44:31.926Z,3.37
2022-07-30T18:47:00.129Z,4.67
2022-07-30T18:49:37.561Z,4.83
2022-07-30T18:52:07.925Z,4.83
2022-07-30T18:54:36.823Z,5.30
2022-07-30T18:57:05.283Z,3.73
2022-07-30T18:59:34.642Z,4.70
2022-07-30T19:02:04.873Z,5.70
2022-07-30T19:04:33.082Z,4.80
2022-07-30T19:07:01.206Z,4.80
2022-07-30T19:09:29.162Z,4.93
2022-07-30T19:11:57.137Z,4.50
2022-07-30T19:14:25.134Z,5.97
2022-07-30T19:16:54.530Z,5.50
2022-07-30T19:19:27.601Z,6.47
2022-07-30T19:21:55.783Z,4.50
2022-07-30T19:24:23.832Z,24.77
2022-07-30T19:26:56.232Z,3.80
2022-07-30T19:29:24.245Z,4.30
2022-07-30T19:31:52.220Z,3.50
2022-07-30T19:34:21.537Z,5.70
2022-07-30T19:36:49.631Z,5.13
2022-07-30T19:39:21.703Z,4.30
2022-07-30T19:42:06.989Z,6.27
2022-07-30T19:44:41.115Z,7.63
2022-07-30T19:47:09.567Z,4.60
2022-07-30T19:49:40.603Z,6.30
2022-07-30T19:52:22.787Z,5.10
2022-07-30T19:54:52.568Z,6.77
2022-07-30T19:57:20.819Z,4.67
2022-07-30T19:59:59.573Z,5.90
2022-07-30T20:02:28.297Z,7.77
2022-07-30T20:04:58.071Z,7.77
2022-07-30T20:07:27.563Z,6.70
2022-07-30T20:09:55.875Z,5.50
2022-07-30T20:12:24.253Z,6.37
2022-07-30T20:14:52.650Z,5.97
2022-07-30T20:17:20.796Z,7.33
2022-07-30T20:19:49.952Z,4.20
2022-07-30T20:22:21.640Z,7.53
2022-07-30T20:24:52.576Z,5.67
2022-07-30T20:27:37.262Z,4.50
2022-07-30T20:30:08.909Z,11.03
2022-07-30T20:32:37.434Z,7.73
2022-07-30T20:35:07.465Z,11.37
2022-07-30T20:37:54.503Z,12.77
2022-07-30T20:40:23.302Z,7.80
2022-07-30T20:42:51.559Z,5.13
2022-07-30T20:45:24.361Z,6.37
2022-07-30T20:47:56.560Z,6.13
2022-07-30T20:50:30.555Z,9.87
2022-07-30T20:53:00.674Z,9.90
2022-07-30T20:55:29.188Z,8.40
2022-07-30T20:58:07.914Z,7.40
2022-07-30T21:00:49.579Z,8.83
2022-07-30T21:03:21.261Z,7.33
2022-07-30T21:05:52.529Z,8.13
2022-07-30T21:08:25.150Z,7.87
2022-07-30T21:10:54.989Z,10.40
2022-07-30T21:13:24.955Z,7.53
2022-07-30T21:16:02.788Z,7.10
2022-07-30T21:18:31.946Z,5.37
2022-07-30T21:21:01.283Z,8.77
2022-07-30T21:23:34.320Z,4.57
2022-07-30T21:26:07.049Z,6.50
2022-07-30T21:28:41.660Z,5.90
2022-07-30T21:31:09.858Z,5.40
2022-07-30T21:33:38.330Z,5.57
2022-07-30T21:36:10.376Z,9.07
2022-07-30T21:38:42.034Z,6.73
2022-07-30T21:41:14.347Z,7.23
2022-07-30T21:43:44.087Z,9.10
2022-07-30T21:46:12.319Z,5.13
2022-07-30T21:48:41.114Z,5.80
2022-07-30T21:51:09.547Z,5.60
2022-07-30T21:53:44.875Z,5.80
2022-07-30T21:56:14.521Z,7.10
2022-07-30T21:58:42.800Z,6.10
2022-07-30T22:01:18.032Z,5.30
2022-07-30T22:04:01.083Z,6.47
2022-07-30T22:06:33.226Z,5.93
2022-07-30T22:09:08.525Z,10.53
2022-07-30T22:11:49.606Z,12.30
2022-07-30T22:14:17.792Z,8.20
2022-07-30T22:16:48.042Z,8.90
2022-07-30T22:19:17.106Z,11.30
2022-07-30T22:21:47.653Z,7.03
2022-07-30T22:24:29.916Z,5.20
2022-07-30T22:27:01.045Z,5.70
2022-07-30T22:29:33.700Z,10.53
2022-07-30T22:32:04.056Z,7.40
2022-07-30T22:34:32.484Z,6.20
2022-07-30T22:37:00.678Z,6.03
2022-07-30T22:39:31.836Z,5.63
2022-07-30T22:42:24.359Z,6.83
2022-07-30T22:44:54.690Z,6.33
2022-07-30T22:47:50.895Z,11.23
2022-07-30T22:50:14.754Z,6.37
2022-07-30T22:52:55.324Z,22.47
2022-07-30T22:55:26.803Z,11.30
2022-07-30T22:57:55.248Z,6.80
2022-07-30T23:00:27.364Z,6.30
2022-07-30T23:02:57.826Z,7.90
2022-07-30T23:05:26.424Z,11.83
2022-07-30T23:07:55.448Z,9.43
2022-07-30T23:10:25.626Z,8.60
2022-07-30T23:12:58.250Z,7.23
2022-07-30T23:15:26.943Z,9.83
2022-07-30T23:17:54.973Z,7.83
2022-07-30T23:20:23.179Z,7.93
2022-07-30T23:22:52.484Z,9.70
2022-07-30T23:25:20.573Z,7.77
2022-07-30T23:27:48.574Z,8.00
2022-07-30T23:30:17.892Z,9.53
2022-07-30T23:32:45.831Z,6.77
2022-07-30T23:35:13.828Z,10.10
2022-07-30T23:37:48.521Z,11.00
2022-07-30T23:40:18.179Z,5.87
2022-07-30T23:42:46.391Z,12.40
2022-07-30T23:45:14.322Z,7.90
2022-07-30T23:48:00.827Z,6.43
2022-07-30T23:50:30.902Z,12.47
2022-07-30T23:52:58.873Z,8.70
2022-07-30T23:55:27.711Z,10.53
2022-07-30T23:57:57.027Z,9.00
